createdAt,value
2022-11-14T00:00:42.287Z,19.80
2022-11-14T00:05:48.612Z,22.63
2022-11-14T00:10:54.431Z,20.17
2022-11-14T00:16:02.059Z,44.22
2022-11-14T00:21:07.357Z,46.38
2022-11-14T00:26:12.349Z,38.17
2022-11-14T00:31:20.085Z,37.58
2022-11-14T00:36:25.063Z,31.58
2022-11-14T00:41:32.193Z,25.15
2022-11-14T00:46:40.086Z,24.48
2022-11-14T00:51:45.061Z,24.02
2022-11-14T00:56:50.124Z,25.05
2022-11-14T01:01:58.205Z,21.38
2022-11-14T01:07:03.550Z,19.05
2022-11-14T01:12:10.293Z,20.65
2022-11-14T01:17:17.890Z,21.55
2022-11-14T01:22:22.880Z,18.85
2022-11-14T01:27:28.005Z,27.40
2022-11-14T01:32:35.617Z,32.45
2022-11-14T01:37:40.670Z,47.72
2022-11-14T01:42:45.872Z,34.35
2022-11-14T01:47:53.445Z,60.50
2022-11-14T01:52:58.442Z,42.72
2022-11-14T01:58:03.998Z,24.63
2022-11-14T02:03:11.709Z,19.70
2022-11-14T02:08:19.157Z,19.38
2022-11-14T02:13:24.153Z,14.88
2022-11-14T02:18:31.943Z,17.27
2022-11-14T02:23:39.804Z,15.45
2022-11-14T02:28:44.768Z,16.38
2022-11-14T02:33:49.817Z,15.90
2022-11-14T02:38:57.457Z,15.65
2022-11-14T02:44:02.536Z,20.00
2022-11-14T02:49:10.556Z,16.30
2022-11-14T02:54:18.160Z,18.17
2022-11-14T02:59:23.228Z,16.73
2022-11-14T03:04:28.267Z,18.20
2022-11-14T03:09:35.941Z,15.75
2022-11-14T03:14:40.921Z,16.77
2022-11-14T03:19:45.906Z,15.00
2022-11-14T03:24:53.540Z,15.30
2022-11-14T03:29:58.553Z,16.70
2022-11-14T03:35:03.675Z,16.73
2022-11-14T03:40:12.686Z,17.60
2022-11-14T03:45:17.773Z,18.25
2022-11-14T03:50:22.765Z,18.90
2022-11-14T03:55:30.465Z,17.23
2022-11-14T04:00:35.478Z,15.40
2022-11-14T04:05:40.652Z,20.83
2022-11-14T04:10:50.289Z,16.27
2022-11-14T04:15:59.042Z,18.20
2022-11-14T04:21:04.010Z,22.20
2022-11-14T04:26:11.648Z,15.85
2022-11-14T04:31:16.642Z,15.38
2022-11-14T04:36:21.706Z,15.25
2022-11-14T04:41:29.325Z,17.50
2022-11-14T04:46:34.410Z,18.42
2022-11-14T04:51:39.398Z,14.93
2022-11-14T04:56:47.025Z,19.33
2022-11-14T05:01:52.284Z,14.55
2022-11-14T05:06:57.500Z,16.10
2022-11-14T05:12:05.228Z,13.70
2022-11-14T05:17:10.199Z,19.52
2022-11-14T05:22:15.313Z,16.10
2022-11-14T05:27:22.923Z,16.67
2022-11-14T05:32:27.919Z,17.33
2022-11-14T05:37:33.027Z,18.45
2022-11-14T05:42:40.798Z,16.88
2022-11-14T05:47:45.768Z,17.25
2022-11-14T05:52:50.780Z,16.48
2022-11-14T05:58:01.211Z,16.30
2022-11-14T06:08:10.872Z,17.00
2022-11-14T06:13:18.505Z,18.40
2022-11-14T06:18:23.504Z,15.85
2022-11-14T06:23:28.502Z,16.75
2022-11-14T06:28:36.681Z,17.85
2022-11-14T06:33:41.647Z,17.70
2022-11-14T06:38:47.268Z,19.75
2022-11-14T06:43:55.633Z,20.52
2022-11-14T06:49:00.614Z,20.55
2022-11-14T06:54:05.640Z,27.73
2022-11-14T06:59:13.265Z,14.88
2022-11-14T07:04:18.395Z,14.32
2022-11-14T07:09:23.529Z,15.40
2022-11-14T07:14:31.714Z,13.40
2022-11-14T07:19:36.806Z,19.50
2022-11-14T07:24:41.816Z,16.42
2022-11-14T07:29:49.399Z,17.90
2022-11-14T07:35:00.794Z,15.27
2022-11-14T07:40:07.992Z,15.90
2022-11-14T07:45:15.968Z,16.77
2022-11-14T07:50:21.110Z,14.13
2022-11-14T07:55:26.274Z,12.43
2022-11-14T08:00:34.013Z,12.85
2022-11-14T08:05:39.058Z,11.18
2022-11-14T08:10:44.042Z,11.77
2022-11-14T08:15:51.811Z,13.88
2022-11-14T08:20:57.893Z,15.23
2022-11-14T08:26:03.022Z,27.80
2022-11-14T08:31:11.066Z,16.33
2022-11-14T08:36:16.150Z,18.17
2022-11-14T08:41:21.228Z,14.85
2022-11-14T08:46:28.878Z,18.50
2022-11-14T08:51:36.166Z,18.17
2022-11-14T08:56:41.635Z,17.35
2022-11-14T09:01:52.202Z,13.48
2022-11-14T09:06:58.964Z,14.15
2022-11-14T09:12:04.388Z,16.48
2022-11-14T09:17:12.276Z,14.93
2022-11-14T09:22:17.280Z,27.60
2022-11-14T09:27:22.297Z,16.45
2022-11-14T09:32:30.179Z,25.27
2022-11-14T09:37:35.183Z,15.25
2022-11-14T09:42:55.422Z,14.27
2022-11-14T09:48:08.300Z,13.23
2022-11-14T09:53:16.967Z,13.00
2022-11-14T09:58:23.425Z,14.45
2022-11-14T10:03:37.426Z,13.70
2022-11-14T10:08:52.595Z,15.05
2022-11-14T10:14:11.855Z,13.90
2022-11-14T10:19:26.048Z,13.57
2022-11-14T10:24:46.198Z,16.60
2022-11-14T10:30:00.993Z,15.80
2022-11-14T10:35:15.398Z,17.25
2022-11-14T10:40:22.466Z,12.57
2022-11-14T10:45:30.424Z,12.07
2022-11-14T10:50:44.709Z,12.10
2022-11-14T10:56:07.940Z,15.45
2022-11-14T11:01:38.052Z,12.15
2022-11-14T11:06:45.761Z,15.38
2022-11-14T11:11:59.866Z,11.98
2022-11-14T11:17:22.980Z,15.07
2022-11-14T11:22:46.958Z,16.52
2022-11-14T11:28:07.460Z,11.93
2022-11-14T11:33:20.189Z,13.45
2022-11-14T11:38:28.784Z,13.95
2022-11-14T11:43:40.606Z,10.47
2022-11-14T11:48:45.696Z,11.57
2022-11-14T11:54:00.773Z,11.40
2022-11-14T11:59:17.961Z,10.23
2022-11-14T12:04:23.165Z,11.38
2022-11-14T12:10:08.380Z,9.55
2022-11-14T12:15:05.002Z,10.45
2022-11-14T12:20:21.332Z,10.27
2022-11-14T12:25:46.340Z,9.05
2022-11-14T12:30:54.219Z,9.77
2022-11-14T12:36:01.531Z,7.38
2022-11-14T12:41:09.377Z,7.72
2022-11-14T12:46:15.277Z,8.52
2022-11-14T12:51:51.606Z,8.95
2022-11-14T12:57:04.075Z,8.80
2022-11-14T13:02:38.801Z,8.20
2022-11-14T13:07:49.160Z,10.60
2022-11-14T13:13:21.255Z,10.18
2022-11-14T13:18:40.479Z,7.65
2022-11-14T13:23:59.246Z,14.60
2022-11-14T13:29:07.298Z,8.43
2022-11-14T13:34:39.795Z,8.73
2022-11-14T13:39:50.446Z,10.10
2022-11-14T13:45:09.096Z,10.27
2022-11-14T13:50:15.592Z,12.27
2022-11-14T13:55:25.889Z,19.15
2022-11-14T14:00:49.549Z,14.00
2022-11-14T14:06:15.189Z,8.52
2022-11-14T14:11:32.868Z,11.32
2022-11-14T14:16:47.687Z,10.00
2022-11-14T14:21:55.352Z,16.77
2022-11-14T14:27:06.027Z,21.20
2022-11-14T14:32:17.936Z,19.70
2022-11-14T14:37:24.592Z,9.15
2022-11-14T14:42:34.946Z,11.27
2022-11-14T14:47:43.986Z,12.18
2022-11-14T14:52:48.986Z,8.63
2022-11-14T14:57:53.925Z,8.95
2022-11-14T15:03:02.145Z,9.13
2022-11-14T15:08:07.991Z,8.57
2022-11-14T15:13:14.900Z,9.43
2022-11-14T15:18:26.827Z,9.90
2022-11-14T15:23:31.848Z,10.40
2022-11-14T15:28:37.124Z,14.90
2022-11-14T15:33:44.770Z,13.43
2022-11-14T15:39:01.964Z,32.92
2022-11-14T15:44:07.165Z,102.10
2022-11-14T15:49:23.597Z,86.65
2022-11-14T15:54:30.378Z,19.88
2022-11-14T15:59:35.951Z,12.15
2022-11-14T16:04:47.471Z,26.02
2022-11-14T16:09:52.974Z,15.80
2022-11-14T16:14:57.932Z,19.15
2022-11-14T16:20:06.548Z,19.63
2022-11-14T16:25:16.749Z,17.23
2022-11-14T16:35:30.306Z,18.45
2022-11-14T16:40:35.280Z,21.42
2022-11-14T16:45:43.182Z,19.02
2022-11-14T16:50:55.599Z,19.77
2022-11-14T16:56:02.505Z,29.30
2022-11-14T17:01:12.913Z,24.67
2022-11-14T17:06:22.136Z,33.15
2022-11-14T17:11:27.832Z,52.10
2022-11-14T17:16:32.830Z,43.03
2022-11-14T17:21:40.447Z,35.63
2022-11-14T17:26:45.825Z,38.47
2022-11-14T17:31:50.866Z,57.70
2022-11-14T17:36:58.513Z,51.80
2022-11-14T17:42:03.588Z,43.30
2022-11-14T17:47:08.693Z,36.22
2022-11-14T17:52:16.321Z,29.00
2022-11-14T17:57:21.420Z,23.13
2022-11-14T18:02:26.446Z,21.50
2022-11-14T18:07:35.751Z,29.25
2022-11-14T18:12:40.889Z,29.13
2022-11-14T18:17:45.890Z,37.42
2022-11-14T18:22:53.668Z,23.10
2022-11-14T18:27:58.656Z,24.02
2022-11-14T18:33:03.673Z,49.50
2022-11-14T18:38:11.905Z,55.58
2022-11-14T18:43:18.116Z,45.78
2022-11-14T18:48:23.093Z,21.27
2022-11-14T18:53:33.844Z,31.95
2022-11-14T18:58:40.000Z,52.35
2022-11-14T19:03:45.173Z,63.45
2022-11-14T19:08:52.769Z,59.17
2022-11-14T19:13:57.749Z,60.55
2022-11-14T19:19:02.985Z,34.67
2022-11-14T19:24:11.897Z,49.67
2022-11-14T19:29:16.943Z,31.50
2022-11-14T19:34:22.149Z,28.77
2022-11-14T19:39:29.798Z,25.73
2022-11-14T19:44:34.989Z,30.10
2022-11-14T19:49:40.033Z,29.42
2022-11-14T19:54:49.327Z,33.03
2022-11-14T19:59:54.325Z,28.42
2022-11-14T20:04:59.304Z,24.13
2022-11-14T20:10:08.030Z,31.92
2022-11-14T20:15:13.898Z,49.85
2022-11-14T20:20:19.252Z,46.15
2022-11-14T20:25:26.973Z,24.27
2022-11-14T20:30:32.101Z,24.90
2022-11-14T20:35:39.338Z,21.20
2022-11-14T20:40:46.975Z,20.40
2022-11-14T20:45:59.103Z,19.05
2022-11-14T20:51:07.079Z,22.88
2022-11-14T20:56:15.546Z,21.42
2022-11-14T21:01:21.240Z,21.42
2022-11-14T21:06:26.251Z,54.70
2022-11-14T21:11:33.861Z,25.40
2022-11-14T21:16:40.478Z,46.28
2022-11-14T21:21:45.533Z,49.97
2022-11-14T21:26:53.148Z,35.50
2022-11-14T21:31:58.172Z,21.77
2022-11-14T21:37:03.429Z,29.77
2022-11-14T21:42:15.678Z,20.88
2022-11-14T21:47:23.286Z,24.30
2022-11-14T21:52:28.256Z,22.08
2022-11-14T21:57:35.834Z,24.88
2022-11-14T22:02:53.145Z,21.67
2022-11-14T22:07:58.330Z,22.42
2022-11-14T22:13:06.111Z,25.90
2022-11-14T22:18:11.090Z,24.15
2022-11-14T22:23:16.135Z,22.70
2022-11-14T22:28:23.801Z,19.63
2022-11-14T22:33:29.097Z,21.30
2022-11-14T22:38:34.931Z,19.48
2022-11-14T22:43:42.681Z,18.58
2022-11-14T22:48:49.057Z,15.60
2022-11-14T22:53:55.654Z,19.63
2022-11-14T22:59:04.578Z,27.50
2022-11-14T23:04:09.643Z,21.77
2022-11-14T23:09:14.897Z,19.50
2022-11-14T23:14:22.575Z,32.92
2022-11-14T23:19:27.588Z,25.80
2022-11-14T23:24:32.558Z,23.13
2022-11-14T23:29:40.158Z,38.70
2022-11-14T23:34:45.226Z,39.65
2022-11-14T23:39:50.253Z,24.25
2022-11-14T23:44:57.908Z,20.95
2022-11-14T23:50:02.905Z,15.88
2022-11-14T23:55:08.632Z,18.02
